Isla de Alboran, Spain
Current Conditions -  °F | °C
As of 7:30 PM on Friday 31 Oct 2014 (Local Time) from GEML Reporting Station
Broken Clouds Broken Clouds  
Wind Chill: 70°   Ceiling: 2200
Heat Index: 70°   Visibility: 6mi
Dew Point: 61°   Wind: 6mph
Humidity: 73%   Direction: 80°E
Pressure: 30.18"   Gusts: NA
Location:  35.9°N, 3.03°W
Report Text: GEML 311830Z 08005KT 040V120 9999 BKN022 21/16 Q1022
Loading
Personal Weather Stations






























Interactive Weather Map
Tropical Storm Tracking
New forecast layout! Learn more

10-Day Weather Forecast

Advertisements
Track Severe Weather on mobile